Airfield :
LOGIN :

Register | Disclaimer

   EN    FR    IT 

 










Legend :    VFR   Marginal VFR   IFR   Intensive IFR   Very Intensive IFR
Visi :
Ceiling :
>= 8 km
>= 3000ft
5 to 8 km
1000 to 3000 ft
1500m to 5 km
500 to 1000 ft
800 to 1500m
200 to 500 ft
< 800m
< 200 ft
Symbols :   Thunderstorms  Fog  Heavy snow  Heavy precipitations  Wind > 20 kt
SIGMETs :     Misc.  Thunderstorms  Icing  Turbulence  Mountain Waves  Volcanic Ashes







- Airport Elevation : 353 ft
- IATA code : LIN


LIML - Milano Linate

CURRENT METAR :
  • 221850Z 10013KT CAVOK 23/16 Q1014 NOSIG

EXPIRED METARs :
  • 221820Z 11011KT 9999 SCT025 24/17 Q1014 NOSIG
  • 221750Z 13011KT 090V150 9999 FEW025 25/17 Q1014 NOSIG
  • 221720Z 12014KT 9999 FEW025 26/18 Q1013 NOSIG
  • 221650Z 12012KT 9999 SCT025 27/18 Q1013 NOSIG
  • 221620Z 11013KT 9999 SCT025 27/18 Q1012 NOSIG

TAF TAF LIML
Valid from the 22 at 18:00 until the 23 at 18:00 UTC


221700Z 2218/2318 12010KT 9999 SCT050
BECMG 2220/2222 VRB05KT
No reported NOTAMs for that airfield.
1 SIGMET reported for the Milano FIR (LIMM) :
 
Severe turbulence
LIMM SIGMET 6 VALID 221705/221905 LIIP
LIMM MILANO FIR SEV TURB FCST E OF LINE N4652 E01015 - N4311 E01420 FL220/420 MOV E WKN=



MET'MAP, your aeronautical weather chart ! - Copyright ORBIFLY December 2007 - Disclaimer

ORBIFLY MET'MAP TEAM :

Programming & Development : Alexandra Zaïnal
Concept & Development : Baudouin d'Aumeries
Co-Development & Prog : Marc-Olivier Méhu
Technical & hardware support : Manuel Goepfert

Contact : metmap@orbifly.com




SOURCES & CREDITS :

   NOAA